createdAt,value
2022-10-09T00:00:16.629Z,100932.59
2022-10-09T00:00:48.342Z,100939.00
2022-10-09T00:01:23.536Z,100938.13
2022-10-09T00:01:55.045Z,100936.34
2022-10-09T00:02:26.653Z,100940.81
2022-10-09T00:02:58.095Z,100935.25
2022-10-09T00:03:29.590Z,100935.47
2022-10-09T00:04:01.042Z,100945.19
2022-10-09T00:04:32.562Z,100943.34
2022-10-09T00:05:04.233Z,100944.09
2022-10-09T00:05:35.832Z,100937.19
2022-10-09T00:06:07.681Z,100944.25
2022-10-09T00:06:39.057Z,100937.94
2022-10-09T00:07:10.521Z,100936.09
2022-10-09T00:07:41.988Z,100938.00
2022-10-09T00:08:13.441Z,100936.84
2022-10-09T00:08:44.972Z,100942.50
2022-10-09T00:09:16.556Z,100945.09
2022-10-09T00:09:47.980Z,100943.47
2022-10-09T00:10:19.504Z,100945.09
2022-10-09T00:10:51.059Z,100945.94
2022-10-09T00:11:25.117Z,100940.47
2022-10-09T00:11:56.535Z,100948.69
2022-10-09T00:12:27.960Z,100952.47
2022-10-09T00:12:59.512Z,100944.25
2022-10-09T00:13:30.903Z,100946.94
2022-10-09T00:14:02.610Z,100945.94
2022-10-09T00:14:34.035Z,100947.97
2022-10-09T00:15:05.806Z,100950.53
2022-10-09T00:15:38.228Z,100943.34
2022-10-09T00:16:10.318Z,100948.69
2022-10-09T00:16:41.805Z,100948.69
2022-10-09T00:17:13.261Z,100950.53
2022-10-09T00:17:44.841Z,100949.59
2022-10-09T00:18:16.870Z,100950.44
2022-10-09T00:18:48.433Z,100945.09
2022-10-09T00:19:19.830Z,100951.28
2022-10-09T00:19:51.387Z,100948.59
2022-10-09T00:26:06.572Z,100957.03
2022-10-09T00:27:00.171Z,100964.94
2022-10-09T00:27:56.635Z,100958.28
2022-10-09T00:28:51.846Z,100965.44
2022-10-09T00:32:32.222Z,100963.25
2022-10-09T00:33:24.123Z,100964.22
2022-10-09T00:34:15.866Z,100967.00
2022-10-09T00:35:12.949Z,100962.38
2022-10-09T00:36:02.797Z,100966.03
2022-10-09T00:36:54.286Z,100964.31
2022-10-09T00:41:27.311Z,100964.31
2022-10-09T00:44:32.144Z,100962.50
2022-10-09T00:45:27.057Z,100959.94
2022-10-09T00:46:19.425Z,100963.38
2022-10-09T00:47:20.584Z,100960.94
2022-10-09T00:51:53.719Z,100965.28
2022-10-09T00:52:48.832Z,100959.47
2022-10-09T00:56:04.717Z,100955.84
2022-10-09T00:56:53.853Z,100961.06
2022-10-09T00:57:49.770Z,100964.56
2022-10-09T01:00:53.658Z,100966.28
2022-10-09T01:01:58.524Z,100959.47
2022-10-09T01:02:53.958Z,100959.47
2022-10-09T01:03:57.550Z,100967.47
2022-10-09T01:07:45.388Z,100959.47
2022-10-09T01:08:46.505Z,100962.13
2022-10-09T01:09:48.698Z,100958.50
2022-10-09T01:12:40.952Z,100961.16
2022-10-09T01:13:39.290Z,100956.91
2022-10-09T01:14:45.744Z,100961.16
2022-10-09T01:15:29.425Z,100965.78
2022-10-09T01:20:11.004Z,100950.72
2022-10-09T01:23:31.180Z,100951.69
2022-10-09T01:24:25.127Z,100950.97
2022-10-09T01:25:30.281Z,100939.47
2022-10-09T01:26:48.648Z,100941.03
2022-10-09T01:27:51.989Z,100942.72
2022-10-09T01:28:47.668Z,100942.00
2022-10-09T01:29:33.492Z,100947.56
2022-10-09T01:38:17.929Z,100941.28
2022-10-09T01:39:12.737Z,100943.09
2022-10-09T01:40:05.020Z,100938.63
2022-10-09T01:41:02.367Z,100934.25
2022-10-09T01:41:57.578Z,100929.88
2022-10-09T01:43:00.334Z,100931.81
2022-10-09T01:44:03.648Z,100931.69
2022-10-09T01:46:23.068Z,100931.81
2022-10-09T01:47:11.521Z,100930.63
2022-10-09T01:47:57.594Z,100934.97
2022-10-09T01:48:44.769Z,100939.47
2022-10-09T01:49:44.425Z,100927.94
2022-10-09T01:50:45.739Z,100923.56
2022-10-09T01:51:40.190Z,100930.72
2022-10-09T01:52:29.461Z,100928.06
2022-10-09T01:53:20.144Z,100925.28
2022-10-09T01:54:15.924Z,100927.06
2022-10-09T01:55:18.868Z,100932.53
2022-10-09T01:56:24.529Z,100924.53
2022-10-09T01:57:31.456Z,100928.41
2022-10-09T01:58:22.708Z,100932.66
2022-10-09T02:00:06.663Z,100929.03
2022-10-09T02:01:04.261Z,100928.91
2022-10-09T02:01:56.921Z,100929.88
2022-10-09T02:02:59.521Z,100928.28
2022-10-09T02:04:01.409Z,100926.47
2022-10-09T02:06:19.392Z,100926.47
2022-10-09T02:07:08.502Z,100922.09
2022-10-09T02:07:57.700Z,100924.53
2022-10-09T02:08:45.705Z,100929.88
2022-10-09T02:09:42.801Z,100927.44
2022-10-09T02:10:31.496Z,100923.81
2022-10-09T02:11:19.425Z,100921.97
2022-10-09T02:12:09.760Z,100923.69
2022-10-09T02:13:06.949Z,100917.75
2022-10-09T02:14:02.374Z,100915.19
2022-10-09T02:15:00.366Z,100914.09
2022-10-09T02:15:59.244Z,100916.88
2022-10-09T02:17:03.184Z,100915.19
2022-10-09T02:20:10.621Z,100917.88
2022-10-09T02:21:03.354Z,100924.03
2022-10-09T02:21:55.303Z,100925.75
2022-10-09T02:22:48.568Z,100920.03
2022-10-09T02:23:42.463Z,100916.03
2022-10-09T02:24:36.159Z,100920.66
2022-10-09T02:26:31.884Z,100920.66
2022-10-09T02:27:26.026Z,100920.53
2022-10-09T02:28:18.620Z,100915.31
2022-10-09T02:29:12.399Z,100913.38
2022-10-09T02:30:15.392Z,100910.69
2022-10-09T02:31:06.165Z,100913.47
2022-10-09T02:31:57.999Z,100916.25
2022-10-09T02:32:48.063Z,100914.31
2022-10-09T02:34:43.208Z,100910.69
2022-10-09T02:36:38.724Z,100915.66
2022-10-09T02:37:32.597Z,100912.88
2022-10-09T02:38:25.851Z,100909.97
2022-10-09T02:39:20.394Z,100907.31
2022-10-09T02:40:18.208Z,100907.31
2022-10-09T02:41:18.673Z,100908.28
2022-10-09T02:42:13.184Z,100901.25
2022-10-09T02:43:05.387Z,100907.31
2022-10-09T02:43:58.371Z,100902.81
2022-10-09T02:44:52.137Z,100902.81
2022-10-09T02:45:49.264Z,100911.28
2022-10-09T02:46:43.079Z,100905.00
2022-10-09T02:47:36.922Z,100904.16
2022-10-09T02:48:30.639Z,100915.44
2022-10-09T02:50:04.767Z,100907.06
2022-10-09T02:51:04.252Z,100905.13
2022-10-09T02:51:55.372Z,100903.91
2022-10-09T02:52:45.380Z,100905.59
2022-10-09T02:53:35.635Z,100905.59
2022-10-09T02:54:25.032Z,100905.72
2022-10-09T02:55:18.997Z,100904.66
2022-10-09T02:56:08.561Z,100901.97
2022-10-09T02:56:58.635Z,100906.44
2022-10-09T02:57:50.015Z,100905.72
2022-10-09T02:58:40.096Z,100910.94
2022-10-09T02:59:30.422Z,100902.94
2022-10-09T03:00:23.688Z,100905.84
2022-10-09T03:01:11.199Z,100897.00
2022-10-09T03:02:03.349Z,100897.84
2022-10-09T03:02:54.378Z,100895.16
2022-10-09T03:03:45.421Z,100896.88
2022-10-09T03:04:36.288Z,100900.38
2022-10-09T03:05:31.201Z,100898.59
2022-10-09T03:06:23.972Z,100888.88
2022-10-09T03:07:15.090Z,100899.66
2022-10-09T03:08:06.029Z,100892.25
2022-10-09T03:08:57.283Z,100899.44
2022-10-09T03:09:47.762Z,100891.44
2022-10-09T03:10:47.123Z,100899.44
2022-10-09T03:11:39.077Z,100893.09
2022-10-09T03:12:29.510Z,100898.81
2022-10-09T03:13:20.131Z,100896.16
2022-10-09T03:14:11.257Z,100902.22
2022-10-09T03:15:01.889Z,100901.50
2022-10-09T03:15:59.711Z,100897.72
2022-10-09T03:16:48.643Z,100892.72
2022-10-09T03:17:36.604Z,100892.00
2022-10-09T03:18:25.938Z,100888.28
2022-10-09T03:19:17.849Z,100889.00
2022-10-09T03:20:06.911Z,100898.81
2022-10-09T03:21:03.271Z,100887.28
2022-10-09T03:21:54.669Z,100896.16
2022-10-09T03:22:47.154Z,100895.06
2022-10-09T03:23:38.355Z,100898.59
2022-10-09T03:24:28.484Z,100895.91
2022-10-09T03:25:21.246Z,100897.00
2022-10-09T03:26:15.262Z,100896.28
2022-10-09T03:27:06.573Z,100898.94
2022-10-09T03:27:58.486Z,100889.94
2022-10-09T03:28:50.446Z,100897.09
2022-10-09T03:29:41.551Z,100897.09
2022-10-09T03:30:32.850Z,100890.94
2022-10-09T03:31:50.460Z,100890.06
2022-10-09T03:32:36.213Z,100889.00
2022-10-09T03:33:27.447Z,100897.94
2022-10-09T03:34:18.702Z,100897.09
2022-10-09T03:35:12.704Z,100896.16
2022-10-09T03:36:08.161Z,100893.72
2022-10-09T03:36:58.915Z,100888.63
2022-10-09T03:37:49.476Z,100892.72
2022-10-09T03:38:40.629Z,100893.50
2022-10-09T03:39:30.208Z,100890.94
2022-10-09T03:40:20.146Z,100890.31
2022-10-09T03:41:16.964Z,100892.00
2022-10-09T03:42:07.687Z,100890.06
2022-10-09T03:42:59.466Z,100897.34
2022-10-09T03:43:50.695Z,100892.00
2022-10-09T03:44:41.672Z,100896.38
2022-10-09T03:45:31.577Z,100900.00
2022-10-09T03:46:25.405Z,100887.63
2022-10-09T03:47:17.441Z,100899.16
2022-10-09T03:48:08.171Z,100898.44
2022-10-09T03:48:58.468Z,100902.91
2022-10-09T03:49:48.035Z,100900.97
2022-10-09T03:50:40.226Z,100898.31
2022-10-09T03:51:33.014Z,100890.94
2022-10-09T03:52:23.200Z,100889.09
2022-10-09T03:53:14.529Z,100889.09
2022-10-09T03:54:05.512Z,100892.72
2022-10-09T03:54:57.101Z,100889.47
2022-10-09T03:55:48.127Z,100896.63
2022-10-09T03:56:46.205Z,100893.94
2022-10-09T03:57:37.476Z,100892.97
2022-10-09T03:58:29.408Z,100895.63
2022-10-09T03:59:18.746Z,100893.94
2022-10-09T04:00:10.974Z,100906.06
2022-10-09T04:01:03.098Z,100899.91
2022-10-09T04:01:57.945Z,100891.28
2022-10-09T04:02:50.479Z,100896.72
2022-10-09T04:03:42.106Z,100889.56
2022-10-09T04:04:32.590Z,100891.41
2022-10-09T04:05:24.548Z,100890.31
2022-10-09T04:06:16.390Z,100892.97
2022-10-09T04:07:14.763Z,100895.91
2022-10-09T04:08:06.707Z,100892.13
2022-10-09T04:08:59.758Z,100889.47
2022-10-09T04:09:51.391Z,100893.13
2022-10-09T04:10:44.192Z,100893.94
2022-10-09T04:11:36.950Z,100894.06
2022-10-09T04:12:32.911Z,100892.25
2022-10-09T04:13:24.475Z,100896.84
2022-10-09T04:14:15.860Z,100897.69
2022-10-09T04:15:06.726Z,100900.34
2022-10-09T04:16:03.130Z,100902.06
2022-10-09T04:16:55.926Z,100893.22
2022-10-09T04:17:50.767Z,100899.75
2022-10-09T04:18:45.094Z,100899.41
2022-10-09T04:19:38.336Z,100898.56
2022-10-09T04:20:36.271Z,100895.91
2022-10-09T04:21:29.827Z,100894.31
2022-10-09T04:22:24.548Z,100896.25
2022-10-09T04:23:17.303Z,100887.16
2022-10-09T04:24:10.375Z,100892.47
2022-10-09T04:25:03.773Z,100891.53
2022-10-09T04:26:58.780Z,100892.47
2022-10-09T04:27:53.120Z,100889.94
2022-10-09T04:28:46.072Z,100900.47
2022-10-09T04:29:38.179Z,100891.75
2022-10-09T04:30:35.452Z,100891.88
2022-10-09T04:31:34.165Z,100889.94
2022-10-09T04:32:27.648Z,100889.94
2022-10-09T04:33:21.986Z,100887.63
2022-10-09T04:34:12.054Z,100884.97
2022-10-09T04:35:03.506Z,100888.25
2022-10-09T04:35:57.456Z,100886.53
2022-10-09T04:36:57.993Z,100886.66
2022-10-09T04:37:52.396Z,100883.75
2022-10-09T04:38:46.749Z,100887.16
2022-10-09T04:39:40.634Z,100882.03
2022-10-09T04:40:38.019Z,100882.78
2022-10-09T04:41:33.520Z,100880.13
2022-10-09T04:42:32.796Z,100886.41
2022-10-09T04:43:28.547Z,100881.94
2022-10-09T04:44:20.892Z,100876.59
2022-10-09T04:45:16.549Z,100881.81
2022-10-09T04:46:11.225Z,100880.13
2022-10-09T04:47:12.953Z,100881.81
2022-10-09T04:48:06.511Z,100884.72
2022-10-09T04:49:00.918Z,100890.78
2022-10-09T04:49:52.310Z,100890.78
2022-10-09T04:50:44.214Z,100882.78
2022-10-09T04:51:37.318Z,100882.16
2022-10-09T04:52:35.378Z,100888.34
2022-10-09T04:53:29.583Z,100885.69
2022-10-09T04:54:22.724Z,100883.88
2022-10-09T04:55:14.667Z,100881.19
2022-10-09T04:56:08.279Z,100884.09
2022-10-09T04:57:02.311Z,100890.03
2022-10-09T04:58:57.563Z,100885.78
2022-10-09T04:59:55.992Z,100890.75
2022-10-09T05:00:50.806Z,100891.50
2022-10-09T05:01:43.844Z,100886.03
2022-10-09T05:02:35.726Z,100891.38
2022-10-09T05:03:32.013Z,100892.97
2022-10-09T05:04:25.135Z,100888.81
2022-10-09T05:05:18.342Z,100891.50
2022-10-09T05:06:12.090Z,100882.78
2022-10-09T05:07:04.662Z,100880.72
2022-10-09T05:07:56.391Z,100880.81
2022-10-09T05:09:54.250Z,100875.97
2022-10-09T05:10:46.009Z,100878.38
2022-10-09T05:11:42.351Z,100881.06
2022-10-09T05:12:34.190Z,100878.50
2022-10-09T05:13:32.521Z,100879.13
2022-10-09T05:14:26.101Z,100878.16
2022-10-09T05:15:18.675Z,100880.72
2022-10-09T05:16:10.406Z,100879.13
2022-10-09T05:17:13.525Z,100876.56
2022-10-09T05:18:06.932Z,100872.09
2022-10-09T05:20:06.052Z,100878.16
2022-10-09T05:20:56.750Z,100873.66
2022-10-09T05:21:46.594Z,100877.66
2022-10-09T05:22:36.671Z,100881.28
2022-10-09T05:23:27.867Z,100877.66
2022-10-09T05:24:25.463Z,100881.66
2022-10-09T05:25:19.089Z,100875.72
2022-10-09T05:26:13.369Z,100876.69
2022-10-09T05:27:07.746Z,100875.50
2022-10-09T05:28:01.145Z,100875.59
2022-10-09T05:28:58.476Z,100884.44
2022-10-09T05:29:52.977Z,100880.59
2022-10-09T05:30:48.478Z,100873.56
2022-10-09T05:31:45.762Z,100877.09
2022-10-09T05:32:41.805Z,100875.25
2022-10-09T05:33:35.026Z,100880.59
2022-10-09T05:35:35.114Z,100879.75
2022-10-09T05:36:27.773Z,100883.25
2022-10-09T05:37:22.161Z,100884.34
2022-10-09T05:38:16.315Z,100877.22
2022-10-09T05:39:11.000Z,100877.31
2022-10-09T05:40:07.633Z,100879.88
2022-10-09T05:41:05.376Z,100884.44
2022-10-09T05:42:00.257Z,100886.88
2022-10-09T05:42:54.195Z,100881.91
2022-10-09T05:43:48.291Z,100879.13
2022-10-09T05:44:47.021Z,100877.56
2022-10-09T05:45:39.481Z,100878.50
2022-10-09T05:46:30.532Z,100881.06
2022-10-09T05:47:24.659Z,100875.72
2022-10-09T05:48:15.277Z,100882.53
2022-10-09T05:49:06.303Z,100881.66
2022-10-09T05:49:58.834Z,100878.88
2022-10-09T05:50:49.171Z,100875.38
2022-10-09T05:51:40.895Z,100880.59
2022-10-09T05:52:31.426Z,100881.44
2022-10-09T05:53:23.679Z,100868.44
2022-10-09T05:54:14.063Z,100874.00
2022-10-09T05:55:07.841Z,100873.78
2022-10-09T05:56:02.979Z,100872.81
2022-10-09T05:56:53.750Z,100875.50
2022-10-09T05:57:43.878Z,100871.13
2022-10-09T05:58:35.697Z,100871.13
2022-10-09T05:59:28.460Z,100881.06
2022-10-09T06:00:23.025Z,100873.06
2022-10-09T06:01:12.812Z,100873.91
2022-10-09T06:02:02.400Z,100871.22
2022-10-09T06:02:53.945Z,100865.06
2022-10-09T06:03:47.832Z,100862.41
2022-10-09T06:04:38.440Z,100870.28
2022-10-09T06:05:32.089Z,100870.41
2022-10-09T06:06:20.902Z,100870.41
2022-10-09T06:07:12.064Z,100870.41
2022-10-09T06:08:04.819Z,100868.44
2022-10-09T06:08:55.851Z,100873.78
2022-10-09T06:09:46.287Z,100874.53
2022-10-09T06:10:45.163Z,100877.44
2022-10-09T06:11:38.136Z,100878.16
2022-10-09T06:12:29.169Z,100875.59
2022-10-09T06:13:20.062Z,100873.78
2022-10-09T06:14:12.146Z,100875.38
2022-10-09T06:15:05.413Z,100873.78
2022-10-09T06:16:12.814Z,100879.13
2022-10-09T06:17:02.447Z,100876.34
2022-10-09T06:17:53.583Z,100881.91
2022-10-09T06:18:48.704Z,100877.44
2022-10-09T06:19:39.084Z,100877.44
2022-10-09T06:20:30.863Z,100871.22
2022-10-09T06:23:20.361Z,100877.31
2022-10-09T06:23:58.441Z,100885.31
2022-10-09T06:24:35.585Z,100875.50
2022-10-09T06:25:13.673Z,100874.66
2022-10-09T06:25:53.552Z,100881.06
2022-10-09T06:26:31.112Z,100881.06
2022-10-09T06:27:08.957Z,100866.78
2022-10-09T06:27:47.334Z,100878.50
2022-10-09T06:28:25.304Z,100871.22
2022-10-09T06:29:04.323Z,100877.44
2022-10-09T06:29:42.689Z,100874.00
2022-10-09T06:30:20.623Z,100872.22
2022-10-09T06:30:59.561Z,100874.78
2022-10-09T06:31:41.934Z,100875.97
2022-10-09T06:32:30.869Z,100878.50
2022-10-09T06:33:17.154Z,100873.06
2022-10-09T06:33:55.018Z,100881.06
2022-10-09T06:34:31.789Z,100874.00
2022-10-09T06:35:08.674Z,100876.44
2022-10-09T06:35:46.894Z,100886.28
2022-10-09T06:36:23.642Z,100881.16
2022-10-09T06:37:02.036Z,100884.94
2022-10-09T06:37:40.490Z,100887.34
2022-10-09T06:38:19.062Z,100884.69
2022-10-09T06:38:56.604Z,100891.00
2022-10-09T06:39:34.785Z,100884.69
2022-10-09T06:40:12.277Z,100885.56
2022-10-09T06:40:50.281Z,100888.09
2022-10-09T06:41:28.957Z,100886.16
2022-10-09T06:42:07.419Z,100883.84
2022-10-09T06:42:46.694Z,100887.13
2022-10-09T06:43:31.177Z,100887.34
2022-10-09T06:44:17.850Z,100885.44
2022-10-09T06:45:05.485Z,100884.69
2022-10-09T06:45:45.811Z,100883.00
2022-10-09T06:46:23.579Z,100887.22
2022-10-09T06:47:01.530Z,100888.09
2022-10-09T06:47:38.612Z,100885.44
2022-10-09T06:48:15.329Z,100882.78
2022-10-09T06:48:51.688Z,100888.31
2022-10-09T06:49:30.681Z,100889.06
2022-10-09T06:50:07.357Z,100891.72
2022-10-09T06:50:46.961Z,100891.00
2022-10-09T06:51:24.582Z,100895.34
2022-10-09T06:52:01.814Z,100895.50
2022-10-09T06:52:38.629Z,100898.00
2022-10-09T06:53:15.978Z,100896.22
2022-10-09T06:53:52.934Z,100899.00
2022-10-09T06:54:31.043Z,100892.81
2022-10-09T06:55:07.836Z,100898.00
2022-10-09T06:56:03.221Z,100898.88
2022-10-09T06:56:42.649Z,100891.94
2022-10-09T06:57:19.114Z,100894.38
2022-10-09T06:57:57.178Z,100899.72
2022-10-09T06:58:34.921Z,100895.22
2022-10-09T06:59:12.134Z,100894.28
2022-10-09T06:59:48.989Z,100893.44
2022-10-09T07:00:26.424Z,100899.09
2022-10-09T07:01:08.145Z,100898.38
2022-10-09T07:01:44.463Z,100893.66
2022-10-09T07:02:21.548Z,100895.59
2022-10-09T07:02:58.447Z,100894.38
2022-10-09T07:03:35.510Z,100898.88
2022-10-09T07:04:15.711Z,100895.34
2022-10-09T07:04:53.645Z,100898.75
2022-10-09T07:05:31.732Z,100897.06
2022-10-09T07:06:22.499Z,100897.06
2022-10-09T07:06:59.022Z,100900.06
2022-10-09T07:07:35.810Z,100904.44
2022-10-09T07:08:12.641Z,100904.31
2022-10-09T07:08:49.555Z,100900.56
2022-10-09T07:09:26.270Z,100902.28
2022-10-09T07:10:02.739Z,100904.09
2022-10-09T07:10:39.300Z,100895.09
2022-10-09T07:11:15.038Z,100902.50
2022-10-09T07:11:51.781Z,100903.22
2022-10-09T07:12:29.479Z,100896.09
2022-10-09T07:13:09.461Z,100905.78
2022-10-09T07:13:49.281Z,100900.44
2022-10-09T07:14:27.148Z,100899.00
2022-10-09T07:15:04.023Z,100898.16
2022-10-09T07:15:46.597Z,100906.00
2022-10-09T07:16:24.732Z,100908.66
2022-10-09T07:17:04.050Z,100909.66
2022-10-09T07:17:46.022Z,100909.66
2022-10-09T07:18:32.520Z,100903.47
2022-10-09T07:19:18.031Z,100905.88
2022-10-09T07:19:55.070Z,100906.88
2022-10-09T07:20:32.800Z,100897.28
2022-10-09T07:21:09.504Z,100900.94
2022-10-09T07:21:46.851Z,100897.88
2022-10-09T07:22:27.030Z,100901.53
2022-10-09T07:23:03.402Z,100906.75
2022-10-09T07:23:40.042Z,100899.84
2022-10-09T07:24:16.849Z,100904.31
2022-10-09T07:24:53.709Z,100895.72
2022-10-09T07:25:30.562Z,100905.28
2022-10-09T07:26:41.516Z,100904.22
2022-10-09T07:27:18.019Z,100896.09
2022-10-09T07:27:54.650Z,100898.75
2022-10-09T07:28:31.640Z,100900.66
2022-10-09T07:29:08.225Z,100897.06
2022-10-09T07:29:45.054Z,100900.81
2022-10-09T07:30:21.578Z,100888.94
2022-10-09T07:30:58.360Z,100890.88
2022-10-09T07:31:35.209Z,100894.28
2022-10-09T07:32:13.047Z,100896.09
2022-10-09T07:32:50.128Z,100897.78
2022-10-09T07:33:27.085Z,100895.09
2022-10-09T07:34:03.804Z,100891.50
2022-10-09T07:34:40.498Z,100888.94
2022-10-09T07:35:17.492Z,100889.91
2022-10-09T07:35:57.458Z,100887.34
2022-10-09T07:36:34.210Z,100889.91
2022-10-09T07:37:11.796Z,100888.09
2022-10-09T07:37:51.507Z,100889.16
2022-10-09T07:38:29.994Z,100889.06
2022-10-09T07:39:10.163Z,100891.72
2022-10-09T07:39:51.461Z,100889.78
2022-10-09T07:40:33.469Z,100895.00
2022-10-09T07:41:19.006Z,100889.66
2022-10-09T07:42:05.410Z,100887.97
2022-10-09T07:42:50.804Z,100895.09
2022-10-09T07:43:34.441Z,100888.81
2022-10-09T07:44:13.080Z,100894.16
2022-10-09T07:44:49.856Z,100892.44
2022-10-09T07:45:26.991Z,100887.88
2022-10-09T07:46:03.912Z,100887.13
2022-10-09T07:46:42.327Z,100893.44
2022-10-09T07:47:19.155Z,100892.31
2022-10-09T07:47:55.812Z,100886.16
2022-10-09T07:48:32.518Z,100883.59
2022-10-09T07:49:09.420Z,100888.72
2022-10-09T07:49:46.294Z,100889.53
2022-10-09T07:50:23.500Z,100887.88
2022-10-09T07:51:00.219Z,100887.88
2022-10-09T07:51:37.803Z,100886.28
2022-10-09T07:52:15.230Z,100897.78
2022-10-09T07:52:52.558Z,100895.00
2022-10-09T07:53:31.516Z,100895.00
2022-10-09T07:54:11.048Z,100890.66
2022-10-09T07:54:47.813Z,100895.88
2022-10-09T07:55:24.814Z,100893.09
2022-10-09T07:56:01.517Z,100889.53
2022-10-09T07:56:39.035Z,100887.88
2022-10-09T07:57:15.753Z,100888.81
2022-10-09T07:57:52.471Z,100888.94
2022-10-09T07:58:29.759Z,100886.16
2022-10-09T07:59:08.862Z,100885.56
2022-10-09T07:59:49.617Z,100887.50
2022-10-09T08:00:32.292Z,100900.44
2022-10-09T08:01:20.101Z,100892.56
2022-10-09T08:02:03.448Z,100895.09
2022-10-09T08:02:40.516Z,100894.50
2022-10-09T08:03:17.196Z,100886.38
2022-10-09T08:03:53.988Z,100889.91
2022-10-09T08:04:30.842Z,100882.53
2022-10-09T08:05:07.417Z,100887.88
2022-10-09T08:05:44.125Z,100889.53
2022-10-09T08:06:20.774Z,100887.75
2022-10-09T08:06:58.100Z,100884.22
2022-10-09T08:07:35.264Z,100884.81
2022-10-09T08:08:11.724Z,100883.97
2022-10-09T08:08:48.494Z,100886.03
2022-10-09T08:09:25.490Z,100882.53
2022-10-09T08:10:02.502Z,100880.59
2022-10-09T08:10:39.248Z,100880.59
2022-10-09T08:11:16.171Z,100881.31
2022-10-09T08:11:52.980Z,100884.97
2022-10-09T08:12:30.704Z,100882.31
2022-10-09T08:13:07.770Z,100879.75
2022-10-09T08:13:44.706Z,100874.53
2022-10-09T08:14:21.983Z,100882.31
2022-10-09T08:14:59.179Z,100878.66
2022-10-09T08:15:36.195Z,100876.09
2022-10-09T08:16:12.835Z,100877.81
2022-10-09T08:16:49.536Z,100875.25
2022-10-09T08:17:26.800Z,100879.50
2022-10-09T08:18:03.542Z,100887.63
2022-10-09T08:18:40.206Z,100882.31
2022-10-09T08:19:16.829Z,100882.16
2022-10-09T08:19:53.852Z,100881.31
2022-10-09T08:20:30.623Z,100885.94
2022-10-09T08:21:11.106Z,100882.31
2022-10-09T08:21:51.956Z,100875.25
2022-10-09T08:22:33.684Z,100882.16
2022-10-09T08:23:16.477Z,100879.50
2022-10-09T08:23:57.567Z,100880.38
2022-10-09T08:24:38.228Z,100879.50
2022-10-09T08:25:18.504Z,100883.03
2022-10-09T08:25:56.837Z,100885.69
2022-10-09T08:26:39.479Z,100879.63
2022-10-09T08:27:19.632Z,100875.88
2022-10-09T08:28:04.589Z,100880.25
2022-10-09T08:28:48.649Z,100881.19
2022-10-09T08:29:30.000Z,100886.53
2022-10-09T08:30:11.945Z,100883.03
2022-10-09T08:30:58.183Z,100878.41
2022-10-09T08:31:42.148Z,100881.09
2022-10-09T08:32:18.658Z,100888.13
2022-10-09T08:32:55.383Z,100873.09
2022-10-09T08:33:32.039Z,100881.81
2022-10-09T08:34:08.868Z,100876.81
2022-10-09T08:34:45.805Z,100876.72
2022-10-09T08:35:22.567Z,100875.88
2022-10-09T08:35:59.032Z,100870.53
2022-10-09T08:36:36.827Z,100870.53
2022-10-09T08:37:13.758Z,100869.69
2022-10-09T08:37:50.916Z,100872.25
2022-10-09T08:38:46.535Z,100876.97
2022-10-09T08:39:23.855Z,100873.09
2022-10-09T08:40:01.013Z,100872.25
2022-10-09T08:41:09.244Z,100880.25
2022-10-09T08:41:47.595Z,100870.41
2022-10-09T08:42:31.207Z,100873.09
2022-10-09T08:43:08.038Z,100870.31
2022-10-09T08:43:47.734Z,100866.03
2022-10-09T08:44:28.474Z,100874.81
2022-10-09T08:45:05.433Z,100876.34
2022-10-09T08:45:44.154Z,100876.47
2022-10-09T08:48:46.069Z,100868.59
2022-10-09T08:49:33.310Z,100872.25
2022-10-09T08:50:17.391Z,100868.59
2022-10-09T08:51:06.614Z,100869.59
2022-10-09T08:51:59.098Z,100870.53
2022-10-09T08:54:10.912Z,100865.09
2022-10-09T08:56:05.269Z,100863.16
2022-10-09T08:57:04.046Z,100867.16
2022-10-09T08:59:06.047Z,100848.38
2022-10-09T08:59:54.633Z,100855.38
2022-10-09T09:00:49.962Z,100857.09
2022-10-09T09:01:49.671Z,100858.81
2022-10-09T09:04:00.549Z,100857.94
2022-10-09T09:04:54.827Z,100857.81
2022-10-09T09:05:39.442Z,100851.53
2022-10-09T09:06:40.173Z,100852.72
2022-10-09T09:08:03.445Z,100851.53
2022-10-09T09:08:59.573Z,100847.16
2022-10-09T09:09:44.059Z,100844.38
2022-10-09T09:10:24.699Z,100846.19
2022-10-09T09:11:06.274Z,100842.56
2022-10-09T09:12:05.423Z,100846.06
2022-10-09T09:13:05.869Z,100842.56
2022-10-09T09:14:23.812Z,100843.53
2022-10-09T09:15:15.264Z,100836.38
2022-10-09T09:16:05.722Z,100838.91
2022-10-09T09:16:52.415Z,100837.25
2022-10-09T09:17:45.604Z,100836.38
2022-10-09T09:18:39.613Z,100840.84
2022-10-09T09:19:32.857Z,100835.75
2022-10-09T09:20:21.633Z,100830.31
2022-10-09T09:21:33.488Z,100835.53
2022-10-09T09:22:35.990Z,100835.75
2022-10-09T09:23:27.514Z,100826.81
2022-10-09T09:24:15.392Z,100828.47
2022-10-09T09:25:04.932Z,100831.03
2022-10-09T09:25:57.672Z,100826.56
2022-10-09T09:26:49.713Z,100828.25
2022-10-09T09:27:44.034Z,100830.91
2022-10-09T09:28:37.349Z,100824.84
2022-10-09T09:29:32.419Z,100825.59
2022-10-09T09:30:29.586Z,100824.84
2022-10-09T09:31:29.940Z,100824.84
2022-10-09T09:32:50.268Z,100820.25
2022-10-09T09:33:44.403Z,100819.75
2022-10-09T09:35:57.935Z,100814.19
2022-10-09T09:36:57.815Z,100816.13
2022-10-09T09:40:35.577Z,100812.47
2022-10-09T09:41:08.642Z,100815.03
2022-10-09T09:41:58.140Z,100816.25
2022-10-09T09:42:49.749Z,100809.81
2022-10-09T09:43:38.935Z,100807.16
2022-10-09T09:44:25.248Z,100809.94
2022-10-09T09:45:15.901Z,100806.31
2022-10-09T09:46:07.206Z,100805.94
2022-10-09T09:46:55.166Z,100807.38
2022-10-09T09:47:57.740Z,100808.88
2022-10-09T09:48:48.455Z,100808.88
2022-10-09T09:49:40.051Z,100808.63
2022-10-09T09:50:48.541Z,100806.19
2022-10-09T09:51:43.999Z,100799.16
2022-10-09T09:52:39.074Z,100794.69
2022-10-09T09:53:31.914Z,100800.75
2022-10-09T09:54:32.919Z,100806.91
2022-10-09T09:55:36.577Z,100804.59
2022-10-09T09:56:26.700Z,100791.66
2022-10-09T09:57:22.003Z,100790.56
2022-10-09T09:58:17.715Z,100798.66
2022-10-09T09:59:08.734Z,100795.78
2022-10-09T10:00:01.909Z,100796.25
2022-10-09T10:00:54.531Z,100796.25
2022-10-09T10:01:45.191Z,100794.56
2022-10-09T10:02:35.323Z,100788.59
2022-10-09T10:03:32.854Z,100787.53
2022-10-09T10:04:26.373Z,100782.69
2022-10-09T10:05:34.443Z,100780.50
2022-10-09T10:06:34.175Z,100781.34
2022-10-09T10:07:23.097Z,100782.09
2022-10-09T10:08:15.951Z,100785.22
2022-10-09T10:09:14.189Z,100786.69
2022-10-09T10:10:10.775Z,100779.41
2022-10-09T10:11:02.030Z,100784.75
2022-10-09T10:11:56.748Z,100772.25
2022-10-09T10:12:50.687Z,100782.56
2022-10-09T10:13:47.239Z,100769.09
2022-10-09T10:14:39.648Z,100776.25
2022-10-09T10:15:45.393Z,100772.38